sensor_id;sensor_type;location;lat;lon;timestamp;pressure;altitude;pressure_sealevel;temperature;humidity
32452;BME280;45528;52.102;5.242;2023-11-18T00:02:55;101932.0;;;12.64;56.65
32452;BME280;45528;52.102;5.242;2023-11-18T00:04:31;101942.0;;;12.57;56.68
32452;BME280;45528;52.102;5.242;2023-11-18T00:06:08;101935.0;;;12.55;56.96
32452;BME280;45528;52.102;5.242;2023-11-18T00:09:20;101937.0;;;12.59;56.81
32452;BME280;45528;52.102;5.242;2023-11-18T00:10:56;101939.0;;;12.63;56.7
32452;BME280;45528;52.102;5.242;2023-11-18T00:12:32;101935.0;;;12.58;56.5
32452;BME280;45528;52.102;5.242;2023-11-18T00:15:44;101933.0;;;12.58;56.48
32452;BME280;45528;52.102;5.242;2023-11-18T00:17:20;101932.0;;;12.56;56.49
32452;BME280;45528;52.102;5.242;2023-11-18T00:18:56;101935.0;;;12.49;56.61
32452;BME280;45528;52.102;5.242;2023-11-18T00:20:33;101935.0;;;12.51;56.62
32452;BME280;45528;52.102;5.242;2023-11-18T00:23:45;101935.0;;;12.51;56.85
32452;BME280;45528;52.102;5.242;2023-11-18T00:26:57;101934.0;;;12.57;57.06
32452;BME280;45528;52.102;5.242;2023-11-18T00:30:10;101925.0;;;12.63;57.09
32452;BME280;45528;52.102;5.242;2023-11-18T00:31:46;101927.0;;;12.68;57.19
32452;BME280;45528;52.102;5.242;2023-11-18T00:33:23;101932.0;;;12.71;57.39
32452;BME280;45528;52.102;5.242;2023-11-18T00:36:35;101926.0;;;12.74;57.47
32452;BME280;45528;52.102;5.242;2023-11-18T00:38:11;101922.0;;;12.84;57.37
32452;BME280;45528;52.102;5.242;2023-11-18T00:39:47;101921.0;;;12.86;57.47
32452;BME280;45528;52.102;5.242;2023-11-18T00:42:59;101920.0;;;12.94;57.23
32452;BME280;45528;52.102;5.242;2023-11-18T00:44:35;101925.0;;;13.03;57.14
32452;BME280;45528;52.102;5.242;2023-11-18T00:46:11;101925.0;;;13.03;57.23
32452;BME280;45528;52.102;5.242;2023-11-18T00:47:48;101926.0;;;13.08;57.29
32452;BME280;45528;52.102;5.242;2023-11-18T00:51:00;101930.0;;;13.1;57.38
32452;BME280;45528;52.102;5.242;2023-11-18T00:52:36;101930.0;;;13.1;57.4
32452;BME280;45528;52.102;5.242;2023-11-18T00:54:12;101931.0;;;13.15;57.41
32452;BME280;45528;52.102;5.242;2023-11-18T00:57:24;101934.0;;;13.21;57.04
32452;BME280;45528;52.102;5.242;2023-11-18T00:59:00;101937.0;;;13.27;56.97
32452;BME280;45528;52.102;5.242;2023-11-18T01:00:37;101943.0;;;13.31;57.04
32452;BME280;45528;52.102;5.242;2023-11-18T01:03:49;101945.0;;;13.33;56.96
32452;BME280;45528;52.102;5.242;2023-11-18T01:05:25;101942.0;;;13.27;57.21
32452;BME280;45528;52.102;5.242;2023-11-18T01:07:01;101941.0;;;13.3;57.14
32452;BME280;45528;52.102;5.242;2023-11-18T01:10:13;101943.0;;;13.33;57.09
32452;BME280;45528;52.102;5.242;2023-11-18T01:11:49;101934.0;;;13.36;56.98
32452;BME280;45528;52.102;5.242;2023-11-18T01:13:25;101934.0;;;13.34;57.04
32452;BME280;45528;52.102;5.242;2023-11-18T01:15:02;101930.0;;;13.29;57.08
32452;BME280;45528;52.102;5.242;2023-11-18T01:18:15;101934.0;;;13.28;57.0
32452;BME280;45528;52.102;5.242;2023-11-18T01:19:51;101934.0;;;13.29;57.22
32452;BME280;45528;52.102;5.242;2023-11-18T01:21:27;101939.0;;;13.27;57.32
32452;BME280;45528;52.102;5.242;2023-11-18T01:24:40;101936.0;;;13.31;57.2
32452;BME280;45528;52.102;5.242;2023-11-18T01:26:16;101938.0;;;13.34;57.27
32452;BME280;45528;52.102;5.242;2023-11-18T01:27:52;101933.0;;;13.29;57.32
32452;BME280;45528;52.102;5.242;2023-11-18T01:31:05;101934.0;;;13.32;57.2
32452;BME280;45528;52.102;5.242;2023-11-18T01:32:41;101933.0;;;13.33;57.12
32452;BME280;45528;52.102;5.242;2023-11-18T01:34:17;101936.0;;;13.33;57.36
32452;BME280;45528;52.102;5.242;2023-11-18T01:35:53;101941.0;;;13.37;57.21
32452;BME280;45528;52.102;5.242;2023-11-18T01:39:05;101941.0;;;13.39;57.01
32452;BME280;45528;52.102;5.242;2023-11-18T01:40:41;101945.0;;;13.43;56.98
32452;BME280;45528;52.102;5.242;2023-11-18T01:42:17;101943.0;;;13.41;56.85
32452;BME280;45528;52.102;5.242;2023-11-18T01:45:30;101943.0;;;13.38;57.0
32452;BME280;45528;52.102;5.242;2023-11-18T01:47:07;101945.0;;;13.38;57.03
32452;BME280;45528;52.102;5.242;2023-11-18T01:48:43;101940.0;;;13.37;57.18
32452;BME280;45528;52.102;5.242;2023-11-18T01:51:55;101934.0;;;13.32;57.43
32452;BME280;45528;52.102;5.242;2023-11-18T01:53:32;101930.0;;;13.39;57.3
32452;BME280;45528;52.102;5.242;2023-11-18T01:55:09;101930.0;;;13.39;57.16
32452;BME280;45528;52.102;5.242;2023-11-18T01:58:24;101931.0;;;13.41;57.33
32452;BME280;45528;52.102;5.242;2023-11-18T02:00:00;101932.0;;;13.38;57.61
32452;BME280;45528;52.102;5.242;2023-11-18T02:01:37;101936.0;;;13.44;57.42
32452;BME280;45528;52.102;5.242;2023-11-18T02:03:14;101933.0;;;13.45;57.57
32452;BME280;45528;52.102;5.242;2023-11-18T02:06:26;101936.0;;;13.5;57.44
32452;BME280;45528;52.102;5.242;2023-11-18T02:08:04;101937.0;;;13.55;57.23
32452;BME280;45528;52.102;5.242;2023-11-18T02:09:42;101935.0;;;13.53;57.1
32452;BME280;45528;52.102;5.242;2023-11-18T02:13:11;101943.0;;;13.52;57.09
32452;BME280;45528;52.102;5.242;2023-11-18T02:14:50;101945.0;;;13.51;57.25
32452;BME280;45528;52.102;5.242;2023-11-18T02:16:27;101944.0;;;13.51;57.06
32452;BME280;45528;52.102;5.242;2023-11-18T02:21:20;101948.0;;;13.5;57.0
32452;BME280;45528;52.102;5.242;2023-11-18T02:22:57;101949.0;;;13.48;57.01
32452;BME280;45528;52.102;5.242;2023-11-18T02:24:34;101946.0;;;13.47;57.09
32452;BME280;45528;52.102;5.242;2023-11-18T02:26:10;101955.0;;;13.47;57.26
32452;BME280;45528;52.102;5.242;2023-11-18T02:29:22;101952.0;;;13.46;57.14
32452;BME280;45528;52.102;5.242;2023-11-18T02:31:03;101950.0;;;13.5;57.23
32452;BME280;45528;52.102;5.242;2023-11-18T02:32:55;101953.0;;;13.48;57.13
32452;BME280;45528;52.102;5.242;2023-11-18T02:34:39;101948.0;;;13.5;57.25
32452;BME280;45528;52.102;5.242;2023-11-18T02:38:05;101943.0;;;13.52;57.24
32452;BME280;45528;52.102;5.242;2023-11-18T02:39:43;101940.0;;;13.51;57.19
32452;BME280;45528;52.102;5.242;2023-11-18T02:41:22;101944.0;;;13.53;57.23
32452;BME280;45528;52.102;5.242;2023-11-18T02:42:59;101936.0;;;13.55;57.14
32452;BME280;45528;52.102;5.242;2023-11-18T02:46:14;101930.0;;;13.52;57.38
32452;BME280;45528;52.102;5.242;2023-11-18T02:47:49;101925.0;;;13.55;57.4
32452;BME280;45528;52.102;5.242;2023-11-18T02:49:25;101918.0;;;13.56;57.38
32452;BME280;45528;52.102;5.242;2023-11-18T02:52:38;101920.0;;;13.58;57.37
32452;BME280;45528;52.102;5.242;2023-11-18T02:54:14;101913.0;;;13.61;57.47
32452;BME280;45528;52.102;5.242;2023-11-18T02:55:50;101914.0;;;13.64;57.36
32452;BME280;45528;52.102;5.242;2023-11-18T02:59:02;101907.0;;;13.68;57.38
32452;BME280;45528;52.102;5.242;2023-11-18T03:00:38;101902.0;;;13.71;57.29
32452;BME280;45528;52.102;5.242;2023-11-18T03:02:14;101903.0;;;13.74;57.18
32452;BME280;45528;52.102;5.242;2023-11-18T03:03:50;101900.0;;;13.71;57.14
32452;BME280;45528;52.102;5.242;2023-11-18T03:07:03;101897.0;;;13.7;57.28
32452;BME280;45528;52.102;5.242;2023-11-18T03:08:39;101902.0;;;13.68;57.34
32452;BME280;45528;52.102;5.242;2023-11-18T03:10:15;101903.0;;;13.63;57.44
32452;BME280;45528;52.102;5.242;2023-11-18T03:13:27;101902.0;;;13.68;57.55
32452;BME280;45528;52.102;5.242;2023-11-18T03:15:04;101901.0;;;13.73;57.35
32452;BME280;45528;52.102;5.242;2023-11-18T03:16:40;101896.0;;;13.74;57.35
32452;BME280;45528;52.102;5.242;2023-11-18T03:19:52;101900.0;;;13.72;57.5
32452;BME280;45528;52.102;5.242;2023-11-18T03:21:29;101900.0;;;13.79;57.36
32452;BME280;45528;52.102;5.242;2023-11-18T03:23:05;101897.0;;;13.76;57.35
32452;BME280;45528;52.102;5.242;2023-11-18T03:24:41;101889.0;;;13.78;57.39
32452;BME280;45528;52.102;5.242;2023-11-18T03:27:53;101888.0;;;13.8;57.4
32452;BME280;45528;52.102;5.242;2023-11-18T03:29:29;101890.0;;;13.8;57.35
32452;BME280;45528;52.102;5.242;2023-11-18T03:31:06;101895.0;;;13.87;57.03
32452;BME280;45528;52.102;5.242;2023-11-18T03:34:18;101889.0;;;13.83;57.43
32452;BME280;45528;52.102;5.242;2023-11-18T03:35:56;101881.0;;;13.83;57.43
32452;BME280;45528;52.102;5.242;2023-11-18T03:37:32;101877.0;;;13.84;57.46
32452;BME280;45528;52.102;5.242;2023-11-18T03:40:45;101875.0;;;13.87;57.28
32452;BME280;45528;52.102;5.242;2023-11-18T03:42:21;101868.0;;;13.88;57.34
32452;BME280;45528;52.102;5.242;2023-11-18T03:43:57;101866.0;;;13.91;57.46
32452;BME280;45528;52.102;5.242;2023-11-18T03:47:09;101855.0;;;13.92;57.44
32452;BME280;45528;52.102;5.242;2023-11-18T03:48:45;101848.0;;;13.95;57.37
32452;BME280;45528;52.102;5.242;2023-11-18T03:50:21;101839.0;;;13.93;57.43
32452;BME280;45528;52.102;5.242;2023-11-18T03:51:58;101832.0;;;14.0;57.29
32452;BME280;45528;52.102;5.242;2023-11-18T03:55:10;101831.0;;;13.98;57.38
32452;BME280;45528;52.102;5.242;2023-11-18T03:56:47;101828.0;;;13.99;57.06
32452;BME280;45528;52.102;5.242;2023-11-18T03:58:23;101820.0;;;13.95;57.25
32452;BME280;45528;52.102;5.242;2023-11-18T04:01:35;101823.0;;;14.0;57.27
32452;BME280;45528;52.102;5.242;2023-11-18T04:03:11;101818.0;;;13.99;57.47
32452;BME280;45528;52.102;5.242;2023-11-18T04:04:47;101815.0;;;14.09;57.05
32452;BME280;45528;52.102;5.242;2023-11-18T04:08:00;101810.0;;;14.1;57.12
32452;BME280;45528;52.102;5.242;2023-11-18T04:09:36;101805.0;;;14.04;57.36
32452;BME280;45528;52.102;5.242;2023-11-18T04:11:12;101807.0;;;14.05;57.32
32452;BME280;45528;52.102;5.242;2023-11-18T04:12:48;101807.0;;;14.09;57.29
32452;BME280;45528;52.102;5.242;2023-11-18T04:16:00;101808.0;;;14.1;57.25
32452;BME280;45528;52.102;5.242;2023-11-18T04:17:36;101822.0;;;14.13;57.04
32452;BME280;45528;52.102;5.242;2023-11-18T04:19:12;101818.0;;;14.15;57.02
32452;BME280;45528;52.102;5.242;2023-11-18T04:22:25;101807.0;;;14.12;57.13
32452;BME280;45528;52.102;5.242;2023-11-18T04:24:01;101800.0;;;14.11;57.24
32452;BME280;45528;52.102;5.242;2023-11-18T04:25:37;101794.0;;;14.14;57.09
32452;BME280;45528;52.102;5.242;2023-11-18T04:28:49;101794.0;;;14.13;57.33
32452;BME280;45528;52.102;5.242;2023-11-18T04:30:25;101783.0;;;14.15;57.14
32452;BME280;45528;52.102;5.242;2023-11-18T04:32:01;101775.0;;;14.1;57.31
32452;BME280;45528;52.102;5.242;2023-11-18T04:35:13;101778.0;;;14.14;57.2
32452;BME280;45528;52.102;5.242;2023-11-18T04:36:50;101780.0;;;14.12;57.26
32452;BME280;45528;52.102;5.242;2023-11-18T04:38:26;101777.0;;;14.21;56.96
32452;BME280;45528;52.102;5.242;2023-11-18T04:40:04;101775.0;;;14.28;56.84
32452;BME280;45528;52.102;5.242;2023-11-18T04:43:18;101777.0;;;14.24;56.93
32452;BME280;45528;52.102;5.242;2023-11-18T04:44:54;101772.0;;;14.28;56.86
32452;BME280;45528;52.102;5.242;2023-11-18T04:46:30;101773.0;;;14.25;56.84
32452;BME280;45528;52.102;5.242;2023-11-18T04:49:42;101766.0;;;14.23;57.01
32452;BME280;45528;52.102;5.242;2023-11-18T04:51:18;101762.0;;;14.24;57.26
32452;BME280;45528;52.102;5.242;2023-11-18T04:52:55;101762.0;;;14.23;57.26
32452;BME280;45528;52.102;5.242;2023-11-18T04:56:07;101763.0;;;14.29;57.05
32452;BME280;45528;52.102;5.242;2023-11-18T04:57:43;101766.0;;;14.36;56.96
32452;BME280;45528;52.102;5.242;2023-11-18T04:59:19;101769.0;;;14.35;56.93
32452;BME280;45528;52.102;5.242;2023-11-18T05:00:55;101765.0;;;14.34;56.98
32452;BME280;45528;52.102;5.242;2023-11-18T05:04:07;101766.0;;;14.29;57.15
32452;BME280;45528;52.102;5.242;2023-11-18T05:05:44;101764.0;;;14.32;57.14
32452;BME280;45528;52.102;5.242;2023-11-18T05:07:20;101765.0;;;14.35;57.12
32452;BME280;45528;52.102;5.242;2023-11-18T05:10:32;101764.0;;;14.39;56.9
32452;BME280;45528;52.102;5.242;2023-11-18T05:12:08;101768.0;;;14.41;56.9
32452;BME280;45528;52.102;5.242;2023-11-18T05:13:44;101771.0;;;14.36;57.2
32452;BME280;45528;52.102;5.242;2023-11-18T05:16:57;101771.0;;;14.39;57.1
32452;BME280;45528;52.102;5.242;2023-11-18T05:18:33;101768.0;;;14.42;57.02
32452;BME280;45528;52.102;5.242;2023-11-18T05:20:10;101769.0;;;14.37;57.18
32452;BME280;45528;52.102;5.242;2023-11-18T05:23:22;101768.0;;;14.38;57.14
32452;BME280;45528;52.102;5.242;2023-11-18T05:24:58;101758.0;;;14.44;57.2
32452;BME280;45528;52.102;5.242;2023-11-18T05:26:34;101746.0;;;14.45;57.15
32452;BME280;45528;52.102;5.242;2023-11-18T05:28:10;101748.0;;;14.45;56.96
32452;BME280;45528;52.102;5.242;2023-11-18T05:31:22;101748.0;;;14.39;57.08
32452;BME280;45528;52.102;5.242;2023-11-18T05:32:58;101735.0;;;14.38;57.12
32452;BME280;45528;52.102;5.242;2023-11-18T05:34:35;101740.0;;;14.37;57.29
32452;BME280;45528;52.102;5.242;2023-11-18T05:37:47;101741.0;;;14.49;56.98
32452;BME280;45528;52.102;5.242;2023-11-18T05:39:23;101745.0;;;14.42;57.16
32452;BME280;45528;52.102;5.242;2023-11-18T05:40:59;101737.0;;;14.42;57.04
32452;BME280;45528;52.102;5.242;2023-11-18T05:44:12;101735.0;;;14.46;56.96
32452;BME280;45528;52.102;5.242;2023-11-18T05:45:48;101725.0;;;14.49;57.05
32452;BME280;45528;52.102;5.242;2023-11-18T05:47:25;101720.0;;;14.5;56.96
32452;BME280;45528;52.102;5.242;2023-11-18T05:50:38;101721.0;;;14.52;56.81
32452;BME280;45528;52.102;5.242;2023-11-18T05:52:14;101716.0;;;14.53;56.78
32452;BME280;45528;52.102;5.242;2023-11-18T05:53:50;101709.0;;;14.61;56.69
32452;BME280;45528;52.102;5.242;2023-11-18T05:55:27;101705.0;;;14.54;56.71
32452;BME280;45528;52.102;5.242;2023-11-18T05:58:39;101703.0;;;14.51;56.95
32452;BME280;45528;52.102;5.242;2023-11-18T06:00:16;101705.0;;;14.53;56.84
32452;BME280;45528;52.102;5.242;2023-11-18T06:01:53;101706.0;;;14.55;56.85
32452;BME280;45528;52.102;5.242;2023-11-18T06:05:05;101710.0;;;14.56;56.76
32452;BME280;45528;52.102;5.242;2023-11-18T06:06:42;101710.0;;;14.54;56.89
32452;BME280;45528;52.102;5.242;2023-11-18T06:08:18;101703.0;;;14.52;56.76
32452;BME280;45528;52.102;5.242;2023-11-18T06:11:30;101702.0;;;14.53;56.83
32452;BME280;45528;52.102;5.242;2023-11-18T06:13:06;101697.0;;;14.55;56.84
32452;BME280;45528;52.102;5.242;2023-11-18T06:14:42;101699.0;;;14.56;56.75
32452;BME280;45528;52.102;5.242;2023-11-18T06:16:20;101699.0;;;14.57;56.82
32452;BME280;45528;52.102;5.242;2023-11-18T06:19:33;101700.0;;;14.59;56.59
32452;BME280;45528;52.102;5.242;2023-11-18T06:21:10;101701.0;;;14.57;56.62
32452;BME280;45528;52.102;5.242;2023-11-18T06:22:47;101695.0;;;14.6;56.5
32452;BME280;45528;52.102;5.242;2023-11-18T06:25:59;101698.0;;;14.62;56.51
32452;BME280;45528;52.102;5.242;2023-11-18T06:27:35;101698.0;;;14.57;56.66
32452;BME280;45528;52.102;5.242;2023-11-18T06:29:11;101687.0;;;14.59;56.57
32452;BME280;45528;52.102;5.242;2023-11-18T06:32:24;101674.0;;;14.58;56.46
32452;BME280;45528;52.102;5.242;2023-11-18T06:34:00;101668.0;;;14.59;56.55
32452;BME280;45528;52.102;5.242;2023-11-18T06:35:37;101681.0;;;14.57;56.66
32452;BME280;45528;52.102;5.242;2023-11-18T06:37:13;101682.0;;;14.61;56.48
32452;BME280;45528;52.102;5.242;2023-11-18T06:40:26;101686.0;;;14.61;56.5
32452;BME280;45528;52.102;5.242;2023-11-18T06:42:03;101697.0;;;14.57;56.6
32452;BME280;45528;52.102;5.242;2023-11-18T06:43:39;101703.0;;;14.59;56.52
32452;BME280;45528;52.102;5.242;2023-11-18T06:46:52;101695.0;;;14.62;56.31
32452;BME280;45528;52.102;5.242;2023-11-18T06:48:28;101683.0;;;14.65;56.36
32452;BME280;45528;52.102;5.242;2023-11-18T06:50:04;101687.0;;;14.7;56.1
32452;BME280;45528;52.102;5.242;2023-11-18T06:53:18;101685.0;;;14.64;56.31
32452;BME280;45528;52.102;5.242;2023-11-18T06:54:54;101689.0;;;14.63;56.27
32452;BME280;45528;52.102;5.242;2023-11-18T06:56:30;101694.0;;;14.59;56.5
32452;BME280;45528;52.102;5.242;2023-11-18T06:58:06;101694.0;;;14.61;56.49
32452;BME280;45528;52.102;5.242;2023-11-18T07:01:19;101690.0;;;14.68;56.25
32452;BME280;45528;52.102;5.242;2023-11-18T07:02:56;101691.0;;;14.64;56.42
32452;BME280;45528;52.102;5.242;2023-11-18T07:04:32;101689.0;;;14.66;56.33
32452;BME280;45528;52.102;5.242;2023-11-18T07:07:44;101680.0;;;14.67;56.31
32452;BME280;45528;52.102;5.242;2023-11-18T07:09:20;101678.0;;;14.66;56.33
32452;BME280;45528;52.102;5.242;2023-11-18T07:10:56;101683.0;;;14.62;56.3
32452;BME280;45528;52.102;5.242;2023-11-18T07:14:09;101681.0;;;14.6;56.54
32452;BME280;45528;52.102;5.242;2023-11-18T07:15:46;101687.0;;;14.65;56.29
32452;BME280;45528;52.102;5.242;2023-11-18T07:17:22;101689.0;;;14.64;56.35
32452;BME280;45528;52.102;5.242;2023-11-18T07:20:34;101697.0;;;14.61;56.38
32452;BME280;45528;52.102;5.242;2023-11-18T07:22:10;101695.0;;;14.59;56.4
32452;BME280;45528;52.102;5.242;2023-11-18T07:23:46;101694.0;;;14.63;56.36
32452;BME280;45528;52.102;5.242;2023-11-18T07:25:22;101701.0;;;14.65;56.29
32452;BME280;45528;52.102;5.242;2023-11-18T07:28:35;101712.0;;;14.64;56.2
32452;BME280;45528;52.102;5.242;2023-11-18T07:30:11;101708.0;;;14.69;56.25
32452;BME280;45528;52.102;5.242;2023-11-18T07:31:47;101713.0;;;14.71;55.97
32452;BME280;45528;52.102;5.242;2023-11-18T07:34:59;101713.0;;;14.71;56.08
32452;BME280;45528;52.102;5.242;2023-11-18T07:36:35;101718.0;;;14.71;56.19
32452;BME280;45528;52.102;5.242;2023-11-18T07:38:12;101720.0;;;14.73;56.1
32452;BME280;45528;52.102;5.242;2023-11-18T07:41:24;101710.0;;;14.65;56.25
32452;BME280;45528;52.102;5.242;2023-11-18T07:43:00;101708.0;;;14.71;56.06
32452;BME280;45528;52.102;5.242;2023-11-18T07:44:37;101708.0;;;14.69;56.14
32452;BME280;45528;52.102;5.242;2023-11-18T07:46:13;101705.0;;;14.67;56.18
32452;BME280;45528;52.102;5.242;2023-11-18T07:49:25;101695.0;;;14.69;56.34
32452;BME280;45528;52.102;5.242;2023-11-18T07:51:01;101695.0;;;14.69;56.24
32452;BME280;45528;52.102;5.242;2023-11-18T07:52:38;101693.0;;;14.62;56.31
32452;BME280;45528;52.102;5.242;2023-11-18T07:55:50;101685.0;;;14.6;56.49
32452;BME280;45528;52.102;5.242;2023-11-18T07:57:26;101693.0;;;14.6;56.62
32452;BME280;45528;52.102;5.242;2023-11-18T07:59:03;101691.0;;;14.63;56.38
32452;BME280;45528;52.102;5.242;2023-11-18T08:02:16;101692.0;;;14.62;56.51
32452;BME280;45528;52.102;5.242;2023-11-18T08:03:52;101686.0;;;14.68;56.43
32452;BME280;45528;52.102;5.242;2023-11-18T08:05:28;101685.0;;;14.71;56.31
32452;BME280;45528;52.102;5.242;2023-11-18T08:08:40;101684.0;;;14.67;56.46
32452;BME280;45528;52.102;5.242;2023-11-18T08:10:16;101682.0;;;14.69;56.45
32452;BME280;45528;52.102;5.242;2023-11-18T08:11:52;101680.0;;;14.69;56.45
32452;BME280;45528;52.102;5.242;2023-11-18T08:13:28;101672.0;;;14.69;56.45
32452;BME280;45528;52.102;5.242;2023-11-18T08:16:41;101667.0;;;14.71;56.31
32452;BME280;45528;52.102;5.242;2023-11-18T08:18:18;101662.0;;;14.67;56.41
32452;BME280;45528;52.102;5.242;2023-11-18T08:19:54;101650.0;;;14.68;56.27
32452;BME280;45528;52.102;5.242;2023-11-18T08:23:06;101655.0;;;14.72;56.41
32452;BME280;45528;52.102;5.242;2023-11-18T08:24:42;101660.0;;;14.71;56.4
32452;BME280;45528;52.102;5.242;2023-11-18T08:26:18;101655.0;;;14.76;56.19
32452;BME280;45528;52.102;5.242;2023-11-18T08:29:32;101650.0;;;14.75;56.33
32452;BME280;45528;52.102;5.242;2023-11-18T08:31:08;101647.0;;;14.68;56.54
32452;BME280;45528;52.102;5.242;2023-11-18T08:32:45;101642.0;;;14.76;56.3
32452;BME280;45528;52.102;5.242;2023-11-18T08:34:21;101623.0;;;14.62;56.31
32452;BME280;45528;52.102;5.242;2023-11-18T08:37:34;101632.0;;;14.85;56.1
32452;BME280;45528;52.102;5.242;2023-11-18T08:39:11;101628.0;;;14.85;56.19
32452;BME280;45528;52.102;5.242;2023-11-18T08:40:47;101621.0;;;14.85;56.25
32452;BME280;45528;52.102;5.242;2023-11-18T08:43:59;101614.0;;;14.88;56.16
32452;BME280;45528;52.102;5.242;2023-11-18T08:45:35;101620.0;;;14.92;56.17
32452;BME280;45528;52.102;5.242;2023-11-18T08:47:11;101630.0;;;14.9;56.23
32452;BME280;45528;52.102;5.242;2023-11-18T08:50:24;101619.0;;;14.94;56.17
32452;BME280;45528;52.102;5.242;2023-11-18T08:52:01;101618.0;;;14.97;56.07
32452;BME280;45528;52.102;5.242;2023-11-18T08:53:38;101608.0;;;14.98;56.05
32452;BME280;45528;52.102;5.242;2023-11-18T08:56:51;101602.0;;;15.0;56.05
32452;BME280;45528;52.102;5.242;2023-11-18T08:58:28;101602.0;;;15.01;56.1
32452;BME280;45528;52.102;5.242;2023-11-18T09:00:05;101596.0;;;15.04;56.01
32452;BME280;45528;52.102;5.242;2023-11-18T09:01:42;101592.0;;;15.05;55.85
32452;BME280;45528;52.102;5.242;2023-11-18T09:04:56;101594.0;;;15.03;55.95
32452;BME280;45528;52.102;5.242;2023-11-18T09:06:32;101591.0;;;15.1;55.65
32452;BME280;45528;52.102;5.242;2023-11-18T09:08:08;101578.0;;;15.08;55.8
32452;BME280;45528;52.102;5.242;2023-11-18T09:11:21;101576.0;;;14.94;56.14
32452;BME280;45528;52.102;5.242;2023-11-18T09:12:59;101570.0;;;15.04;55.99
32452;BME280;45528;52.102;5.242;2023-11-18T09:14:35;101576.0;;;15.14;55.8
32452;BME280;45528;52.102;5.242;2023-11-18T09:16:12;101560.0;;;15.12;55.82
32452;BME280;45528;52.102;5.242;2023-11-18T09:19:24;101572.0;;;15.21;55.74
32452;BME280;45528;52.102;5.242;2023-11-18T09:21:00;101544.0;;;15.25;55.68
32452;BME280;45528;52.102;5.242;2023-11-18T09:22:36;101555.0;;;15.21;55.98
32452;BME280;45528;52.102;5.242;2023-11-18T09:25:48;101549.0;;;15.22;55.85
32452;BME280;45528;52.102;5.242;2023-11-18T09:27:25;101543.0;;;15.14;56.0
32452;BME280;45528;52.102;5.242;2023-11-18T09:29:01;101543.0;;;15.18;56.05
32452;BME280;45528;52.102;5.242;2023-11-18T09:32:14;101528.0;;;15.3;55.78
32452;BME280;45528;52.102;5.242;2023-11-18T09:33:50;101527.0;;;15.25;55.87
32452;BME280;45528;52.102;5.242;2023-11-18T09:35:26;101524.0;;;15.24;55.89
32452;BME280;45528;52.102;5.242;2023-11-18T09:38:39;101510.0;;;15.19;55.96
32452;BME280;45528;52.102;5.242;2023-11-18T09:40:16;101510.0;;;15.21;56.01
32452;BME280;45528;52.102;5.242;2023-11-18T09:41:52;101499.0;;;15.23;56.08
32452;BME280;45528;52.102;5.242;2023-11-18T09:43:29;101494.0;;;15.17;56.34
32452;BME280;45528;52.102;5.242;2023-11-18T09:46:46;101499.0;;;15.16;56.41
32452;BME280;45528;52.102;5.242;2023-11-18T09:48:26;101502.0;;;15.15;56.49
32452;BME280;45528;52.102;5.242;2023-11-18T09:50:02;101498.0;;;15.11;56.54
32452;BME280;45528;52.102;5.242;2023-11-18T09:53:22;101502.0;;;15.16;56.71
32452;BME280;45528;52.102;5.242;2023-11-18T09:55:02;101513.0;;;15.14;56.89
32452;BME280;45528;52.102;5.242;2023-11-18T09:56:44;101517.0;;;15.15;56.92
32452;BME280;45528;52.102;5.242;2023-11-18T09:58:34;101513.0;;;14.99;57.38
32452;BME280;45528;52.102;5.242;2023-11-18T10:00:16;101509.0;;;15.19;57.1
32452;BME280;45528;52.102;5.242;2023-11-18T10:03:33;101503.0;;;15.2;56.98
32452;BME280;45528;52.102;5.242;2023-11-18T10:05:10;101502.0;;;15.17;57.15
32452;BME280;45528;52.102;5.242;2023-11-18T10:06:47;101500.0;;;15.17;57.2
32452;BME280;45528;52.102;5.242;2023-11-18T10:10:01;101501.0;;;15.26;57.1
32452;BME280;45528;52.102;5.242;2023-11-18T10:11:37;101495.0;;;15.3;57.04
32452;BME280;45528;52.102;5.242;2023-11-18T10:13:13;101490.0;;;15.34;57.05
32452;BME280;45528;52.102;5.242;2023-11-18T10:14:49;101484.0;;;15.33;57.21
32452;BME280;45528;52.102;5.242;2023-11-18T10:18:03;101489.0;;;15.26;57.32
32452;BME280;45528;52.102;5.242;2023-11-18T10:19:51;101482.0;;;15.32;57.05
32452;BME280;45528;52.102;5.242;2023-11-18T10:21:35;101486.0;;;15.31;57.36
32452;BME280;45528;52.102;5.242;2023-11-18T10:23:12;101491.0;;;15.32;57.37
32452;BME280;45528;52.102;5.242;2023-11-18T10:26:25;101505.0;;;15.33;57.29
32452;BME280;45528;52.102;5.242;2023-11-18T10:28:01;101496.0;;;15.3;57.25
32452;BME280;45528;52.102;5.242;2023-11-18T10:29:37;101503.0;;;15.45;57.17
32452;BME280;45528;52.102;5.242;2023-11-18T10:32:57;101500.0;;;15.35;57.27
32452;BME280;45528;52.102;5.242;2023-11-18T10:34:33;101482.0;;;15.36;57.39
32452;BME280;45528;52.102;5.242;2023-11-18T10:36:18;101467.0;;;15.39;57.4
32452;BME280;45528;52.102;5.242;2023-11-18T10:37:55;101464.0;;;15.48;57.18
32452;BME280;45528;52.102;5.242;2023-11-18T10:41:08;101456.0;;;15.38;57.58
32452;BME280;45528;52.102;5.242;2023-11-18T10:42:44;101453.0;;;15.5;57.37
32452;BME280;45528;52.102;5.242;2023-11-18T10:44:21;101445.0;;;15.46;57.32
32452;BME280;45528;52.102;5.242;2023-11-18T10:47:43;101449.0;;;15.39;57.76
32452;BME280;45528;52.102;5.242;2023-11-18T10:49:20;101440.0;;;15.43;57.55
32452;BME280;45528;52.102;5.242;2023-11-18T10:50:56;101438.0;;;15.25;58.15
32452;BME280;45528;52.102;5.242;2023-11-18T10:52:32;101438.0;;;15.42;57.76
32452;BME280;45528;52.102;5.242;2023-11-18T10:55:45;101434.0;;;15.49;57.71
32452;BME280;45528;52.102;5.242;2023-11-18T10:57:22;101426.0;;;15.49;57.66
32452;BME280;45528;52.102;5.242;2023-11-18T10:58:59;101422.0;;;15.5;57.55
32452;BME280;45528;52.102;5.242;2023-11-18T11:02:23;101422.0;;;15.42;57.52
32452;BME280;45528;52.102;5.242;2023-11-18T11:03:59;101422.0;;;15.58;57.36
32452;BME280;45528;52.102;5.242;2023-11-18T11:05:36;101426.0;;;15.54;57.64
32452;BME280;45528;52.102;5.242;2023-11-18T11:07:13;101427.0;;;15.57;57.68
32452;BME280;45528;52.102;5.242;2023-11-18T11:10:28;101423.0;;;15.59;57.54
32452;BME280;45528;52.102;5.242;2023-11-18T11:12:10;101418.0;;;15.65;57.56